Detall de PIREP

Printer-friendly versionPDF version

[2014/11/29 16:35:00]
Flight IATA:CT2111
Pilot Number:044
Company ICAO:CAT
Aircraft Type:B463/A
PAX:83
Aircraft Registration:PAX
Departing Airport: LEST
Destination Airport: LEVC
Alternate Airport:LEAL
Online: VATSIM
Route:FORNO/N0420F240 A33 ZMR/N0450F320 UL155 NVS UM871 PDT UM871 MABUX
Flight Level:F300
No Slew and time accel
No pause
Crash detect
Detect pilot in Cockpit between each 30 and 45 minutes
16:35 Zero fuel Weight: 73541 Lbs, Fuel Weight: 12835 Lbs
16:35 VATSIM:LEST 291600Z 01007KT 340V050 9999 FEW018 BKN032 13/11 Q1001 NOSIG
16:35 VATSIM:LEVC 291600Z 12008KT 9999 FEW015 FEW020TCU BKN040 18/15 Q0993 NOSIG
16:42 Parking Brakes off
16:49 Take-off
16:49 Take off Weight: 85786 Lbs
16:49 Wind: 014º @ 009 Knots Heading: 348º
16:49 POS N42º 53´ 53´´ W008º 24´ 55´´
16:49 Flaps:1 at 160 Knots
16:49 Gear Up: 161 Knots
16:49 Flaps:0 at 156 Knots
17:04 Wind:013º@027 Knots Heading: 118º Ground Speed: 287 Knots Altitude 27096 ft
17:05 TOC
17:05 Fuel Weight: 10265 Lb
17:19 Wind:042º@042 Knots Heading: 132º Ground Speed: 422 Knots Altitude 29524 ft
17:34 Wind:208º@000 Knots Heading: 104º Ground Speed: 423 Knots Altitude 29471 ft
17:46 TOD
17:46 Fuel Weight: 6545 Lb
17:49 Wind:339º@006 Knots Heading: 117º Ground Speed: 339 Knots Altitude 25800 ft
18:03 Flaps:1 at 196 Knots
18:03 Gear Down: 171 Knots
18:03 Flaps:2 at 166 Knots
18:03 Flaps:3 at 156 Knots
18:04 Wind:113º@003 Knots Heading: 120º Ground Speed: 151 Knots Altitude 606 ft
18:04 TouchDown:Rate -311 ft/min Speed: 130 Knots
18:04 VATSIM:LEVC 291730Z 11003KT 9999 FEW015 SCT040 17/15 Q0994 NOSIG
18:04 Land
18:04 Wind:113º@003 Knots
18:04 Heading: 115º
18:04 Flight Duration: 01:15
18:04 Landing Weight: 79504 Lbs
18:04 POS N39º 29´ 24´´ W000º 29´ 03´´
18:07 Parking brakes on
18:07 Block to Block Duration: 01:25
18:07 Final Fuel: 5886 Lbls
18:07 Spent Fuel: 6948 Lbls
18:07 Flight Length: 432 NM
18:07 TOD Land Length: 82 NM

Exportar CSV

Powered by Drupal - Modified by Danger4k